Seven Seas Mariner — C6VV8 — position and weather

sailwx.info

Track history (hours):
 
Tides and Currents Weather Stations Pressure Air Temp Water Temp Dewpoint Dewpoint Depression Visibility Wind Speed Wind Dir Waves Ship Positions

Seven Seas Mariner

Last reported at 2019-May-20 10:20 UTC. Time now 2019-May-20 17:03 UTC.
Position N 58°09' W 135°14'.

Length 216 m; draft 7.2 m.

Type: Passenger vessel. MMSI: 311622000.

Date/timePositionNaut miles runAvg speedWind from/ knotsBaromVisibWave heightAir tempDewpointWater temp
2019-May-20 10:20N 58°09' W 135°14'716.0
2019-May-20 09:55N 58°12' W 135°26'716.2
2019-May-20 09:30N 58°15' W 135°36'816.6
2019-May-20 09:00N 58°19' W 135°51'816.8
2019-May-20 08:30N 58°19' W 136°07'266 5.9
2019-May-18 11:41N 54°52' W 131°04'1814.0
2019-May-18 10:22N 54°35' W 131°17'514.2
2019-May-18 10:00N 54°30' W 131°13'714.0
2019-May-18 09:30N 54°24' W 131°08'714.5
2019-May-18 09:01N 54°17' W 131°03'714.1
2019-May-18 08:30N 54°10' W 131°02'714.6
2019-May-18 08:00N 54°03' W 131°01'714.7
2019-May-18 07:30N 53°56' W 130°59'714.5
2019-May-18 07:00N 53°49' W 130°57'714.4
2019-May-18 06:30N 53°41' W 130°54'914.7
2019-May-18 05:55N 53°33' W 130°51'714.4
2019-May-18 05:27N 53°26' W 130°49'10216.2
2019-May-17 23:11N 51°51' W 129°53'516.1
2019-May-17 22:53N 51°47' W 129°49'616.2
2019-May-17 22:30N 51°42' W 129°43'917.5
2019-May-17 22:00N 51°34' W 129°35'918.8
2019-May-17 21:30N 51°27' W 129°27'919.0
2019-May-17 21:00N 51°23' W 129°13'1019.2
2019-May-17 20:30N 51°19' W 128°59'1019.1
2019-May-17 20:00N 51°15' W 128°45'918.9
2019-May-17 19:30N 51°11' W 128°31'1019.0
2019-May-17 19:00N 51°07' W 128°17'1119.0
2019-May-17 18:27N 51°03' W 128°02'918.6
2019-May-17 17:59N 50°59' W 127°49'917.0
2019-May-17 17:26N 50°54' W 127°37'1118.8
2019-May-17 16:52N 50°49' W 127°23'1419.1
2019-May-17 16:08N 50°43' W 127°02'318.8
2019-May-17 15:59N 50°42' W 126°58'918.3
2019-May-17 15:28N 50°37' W 126°46'1014.7
2019-May-17 14:47N 50°30' W 126°34'917.3
2019-May-17 14:17N 50°30' W 126°20'3617.4
2019-May-17 12:13N 50°20' W 125°26'416.4
2019-May-17 12:00N 50°17' W 125°24'816.2
2019-May-17 11:30N 50°09' W 125°21'510.5
2019-May-17 11:00N 50°05' W 125°16'611.5
2019-May-17 10:30N 49°60' W 125°12'510.1
2019-May-17 09:59N 49°56' W 125°07'5 9.9
2019-May-17 09:30N 49°53' W 125°02'5 9.8
2019-May-17 09:00N 49°49' W 124°56'5 9.5
2019-May-17 08:30N 49°46' W 124°51'5 9.6
2019-May-17 08:00N 49°42' W 124°46'5 9.6
2019-May-17 07:30N 49°39' W 124°41'5 9.4
2019-May-17 07:00N 49°35' W 124°36'5 9.2
2019-May-17 06:30N 49°32' W 124°31'5 9.0
2019-May-17 06:00N 49°28' W 124°27'4 8.8
2019-May-17 05:30N 49°26' W 124°21'5 9.0
2019-May-17 05:00N 49°24' W 124°15'5 9.0
2019-May-17 04:30N 49°23' W 124°08'4 9.1
2019-May-17 04:00N 49°22' W 124°02'5 9.7
2019-May-17 03:30N 49°21' W 123°54'5 9.6
2019-May-17 03:00N 49°20' W 123°47'5 9.5
2019-May-17 02:30N 49°19' W 123°40'5 9.7
2019-May-17 02:00N 49°19' W 123°33'5 9.6
2019-May-17 01:30N 49°19' W 123°25'5 9.8
2019-May-17 01:00N 49°19' W 123°18'611.0
2019-May-17 00:30N 49°19' W 123°09'3 5.1
2019-May-17 00:00N 49°17' W 123°06'0 0.0
2019-May-16 23:30N 49°17' W 123°06'0 0.0
2019-May-16 23:00N 49°17' W 123°06'0 0.0
2019-May-16 22:30N 49°17' W 123°06'0 0.0
2019-May-16 22:00N 49°17' W 123°06'0 0.0
2019-May-16 21:30N 49°17' W 123°06'0 0.0
2019-May-16 21:00N 49°17' W 123°06'0 0.0
2019-May-16 20:30N 49°17' W 123°06'0 0.0
2019-May-16 20:00N 49°17' W 123°06'0 0.0
2019-May-16 19:30N 49°17' W 123°06'0 0.0
2019-May-16 18:59N 49°17' W 123°06'0 0.0
2019-May-16 18:30N 49°17' W 123°06'0 0.0
2019-May-16 17:59N 49°17' W 123°06'0 0.0
2019-May-16 17:30N 49°17' W 123°06'0 0.0
2019-May-16 17:00N 49°17' W 123°06'0 0.0
2019-May-16 16:30N 49°17' W 123°06'0 0.0
2019-May-16 15:57N 49°17' W 123°06'0 0.0
2019-May-16 15:30N 49°17' W 123°06'0 0.0
2019-May-16 15:00N 49°17' W 123°06'0 0.0
2019-May-16 14:30N 49°17' W 123°06'0 0.0
2019-May-16 14:00N 49°17' W 123°06'0 0.0
2019-May-16 13:30N 49°17' W 123°06'0 0.0
2019-May-16 13:00N 49°17' W 123°06'1 1.4
2019-May-16 12:30N 49°18' W 123°07'4 9.0
2019-May-16 12:00N 49°19' W 123°13'713.3
2019-May-16 11:30N 49°18' W 123°24'714.1
2019-May-16 11:01N 49°19' W 123°34'714.2
2019-May-16 10:31N 49°20' W 123°45'714.3
2019-May-16 10:01N 49°21' W 123°56'714.5
2019-May-16 09:30N 49°23' W 124°07'714.5
2019-May-16 09:00N 49°25' W 124°17'814.3
2019-May-16 08:25N 49°29' W 124°28'614.9
2019-May-16 08:00N 49°34' W 124°35'815.2
2019-May-16 07:30N 49°40' W 124°42'815.3
2019-May-16 07:00N 49°45' W 124°50'815.2
2019-May-16 06:30N 49°51' W 124°59'815.1
2019-May-16 06:00N 49°56' W 125°07'714.6
2019-May-16 05:30N 50°02' W 125°13'714.6
2019-May-16 05:00N 50°08' W 125°21'612.8
2019-May-16 04:30N 50°14' W 125°23'612.7
2019-May-16 04:00N 50°20' W 125°26'1313.5
2019-May-16 03:01N 50°22' W 125°46'014.2
2019-May-16 03:00N 50°22' W 125°46'1413.7
2019-May-16 02:00N 50°28' W 126°06'1114.1
2019-May-16 01:14N 50°30' W 126°23'413.9
2019-May-16 00:59N 50°30' W 126°28'713.8
2019-May-16 00:28N 50°32' W 126°39'611.8
2019-May-15 23:56N 50°37' W 126°45'716.1
2019-May-15 23:30N 50°41' W 126°53'2616.0
2019-May-15 21:54N 50°51' W 127°31'615.4
2019-May-15 21:30N 50°54' W 127°39'815.7
2019-May-15 21:00N 50°59' W 127°49'612.8
2019-May-15 20:31N 51°02' W 127°58'815.1
2019-May-15 20:01N 51°05' W 128°09'815.2
2019-May-15 19:31N 51°09' W 128°19'815.0
2019-May-15 19:01N 51°12' W 128°30'815.2
2019-May-15 18:30N 51°15' W 128°42'816.1
2019-May-15 18:00N 51°18' W 128°54'816.3
2019-May-15 17:30N 51°21' W 129°06'13117.1
2019-May-15 09:50N 53°17' W 130°45'2019.4
2019-May-15 08:49N 53°36' W 130°52'619.0
2019-May-15 08:30N 53°42' W 130°54'918.6
2019-May-15 08:00N 53°51' W 130°58'918.4
2019-May-15 07:31N 53°60' W 131°01'917.9
2019-May-15 07:00N 54°09' W 131°02'918.3
2019-May-15 06:31N 54°18' W 131°02'1018.9
2019-May-15 06:00N 54°27' W 131°09'918.9
2019-May-15 05:30N 54°35' W 131°16'918.3
2019-May-15 05:00N 54°43' W 131°09'917.5
2019-May-15 04:29N 54°51' W 131°04'1718.4
2019-May-15 03:34N 55°08' W 131°10'218.1
2019-May-15 03:29N 55°10' W 131°11'  
2019-May-12 10:46N 58°10' W 135°20'516.5
2019-May-12 10:28N 58°13' W 135°28'817.1
2019-May-12 10:00N 58°17' W 135°41'918.6
2019-May-12 09:31N 58°19' W 135°58'918.0
2019-May-12 09:00N 58°18' W 136°15'1316.9
2019-May-12 08:15N 58°10' W 136°34'  
Track history (hours):
 
Tides and Currents Weather Stations Pressure Air Temp Water Temp Dewpoint Dewpoint Depression Visibility Wind Speed Wind Dir Waves Ship Positions

Seven Seas Mariner

Last reported at 2019-May-20 10:20 UTC. Time now 2019-May-20 17:03 UTC.
Position N 58°09' W 135°14'.

Length 216 m; draft 7.2 m.

Type: Passenger vessel. MMSI: 311622000.

Date/timePositionNaut miles runAvg speedWind from/ knotsBaromVisibWave heightAir tempDewpointWater temp
2019-May-20 10:20N 58°09' W 135°14'716.0
2019-May-20 09:55N 58°12' W 135°26'716.2
2019-May-20 09:30N 58°15' W 135°36'816.6
2019-May-20 09:00N 58°19' W 135°51'816.8
2019-May-20 08:30N 58°19' W 136°07'266 5.9
2019-May-18 11:41N 54°52' W 131°04'1814.0
2019-May-18 10:22N 54°35' W 131°17'514.2
2019-May-18 10:00N 54°30' W 131°13'714.0
2019-May-18 09:30N 54°24' W 131°08'714.5
2019-May-18 09:01N 54°17' W 131°03'714.1
2019-May-18 08:30N 54°10' W 131°02'714.6
2019-May-18 08:00N 54°03' W 131°01'714.7
2019-May-18 07:30N 53°56' W 130°59'714.5
2019-May-18 07:00N 53°49' W 130°57'714.4
2019-May-18 06:30N 53°41' W 130°54'914.7
2019-May-18 05:55N 53°33' W 130°51'714.4
2019-May-18 05:27N 53°26' W 130°49'10216.2
2019-May-17 23:11N 51°51' W 129°53'516.1
2019-May-17 22:53N 51°47' W 129°49'616.2
2019-May-17 22:30N 51°42' W 129°43'917.5
2019-May-17 22:00N 51°34' W 129°35'918.8
2019-May-17 21:30N 51°27' W 129°27'919.0
2019-May-17 21:00N 51°23' W 129°13'1019.2
2019-May-17 20:30N 51°19' W 128°59'1019.1
2019-May-17 20:00N 51°15' W 128°45'918.9
2019-May-17 19:30N 51°11' W 128°31'1019.0
2019-May-17 19:00N 51°07' W 128°17'1119.0
2019-May-17 18:27N 51°03' W 128°02'918.6
2019-May-17 17:59N 50°59' W 127°49'917.0
2019-May-17 17:26N 50°54' W 127°37'1118.8
2019-May-17 16:52N 50°49' W 127°23'1419.1
2019-May-17 16:08N 50°43' W 127°02'318.8
2019-May-17 15:59N 50°42' W 126°58'918.3
2019-May-17 15:28N 50°37' W 126°46'1014.7
2019-May-17 14:47N 50°30' W 126°34'917.3
2019-May-17 14:17N 50°30' W 126°20'3617.4
2019-May-17 12:13N 50°20' W 125°26'416.4
2019-May-17 12:00N 50°17' W 125°24'816.2
2019-May-17 11:30N 50°09' W 125°21'510.5
2019-May-17 11:00N 50°05' W 125°16'611.5
2019-May-17 10:30N 49°60' W 125°12'510.1
2019-May-17 09:59N 49°56' W 125°07'5 9.9
2019-May-17 09:30N 49°53' W 125°02'5 9.8
2019-May-17 09:00N 49°49' W 124°56'5 9.5
2019-May-17 08:30N 49°46' W 124°51'5 9.6
2019-May-17 08:00N 49°42' W 124°46'5 9.6
2019-May-17 07:30N 49°39' W 124°41'5 9.4
2019-May-17 07:00N 49°35' W 124°36'5 9.2
2019-May-17 06:30N 49°32' W 124°31'5 9.0
2019-May-17 06:00N 49°28' W 124°27'4 8.8
2019-May-17 05:30N 49°26' W 124°21'5 9.0
2019-May-17 05:00N 49°24' W 124°15'5 9.0
2019-May-17 04:30N 49°23' W 124°08'4 9.1
2019-May-17 04:00N 49°22' W 124°02'5 9.7
2019-May-17 03:30N 49°21' W 123°54'5 9.6
2019-May-17 03:00N 49°20' W 123°47'5 9.5
2019-May-17 02:30N 49°19' W 123°40'5 9.7
2019-May-17 02:00N 49°19' W 123°33'5 9.6
2019-May-17 01:30N 49°19' W 123°25'5 9.8
2019-May-17 01:00N 49°19' W 123°18'611.0
2019-May-17 00:30N 49°19' W 123°09'3 5.1
2019-May-17 00:00N 49°17' W 123°06'0 0.0
2019-May-16 23:30N 49°17' W 123°06'0 0.0
2019-May-16 23:00N 49°17' W 123°06'0 0.0
2019-May-16 22:30N 49°17' W 123°06'0 0.0
2019-May-16 22:00N 49°17' W 123°06'0 0.0
2019-May-16 21:30N 49°17' W 123°06'0 0.0
2019-May-16 21:00N 49°17' W 123°06'0 0.0
2019-May-16 20:30N 49°17' W 123°06'0 0.0
2019-May-16 20:00N 49°17' W 123°06'0 0.0
2019-May-16 19:30N 49°17' W 123°06'0 0.0
2019-May-16 18:59N 49°17' W 123°06'0 0.0
2019-May-16 18:30N 49°17' W 123°06'0 0.0
2019-May-16 17:59N 49°17' W 123°06'0 0.0
2019-May-16 17:30N 49°17' W 123°06'0 0.0
2019-May-16 17:00N 49°17' W 123°06'0 0.0
2019-May-16 16:30N 49°17' W 123°06'0 0.0
2019-May-16 15:57N 49°17' W 123°06'0 0.0
2019-May-16 15:30N 49°17' W 123°06'0 0.0
2019-May-16 15:00N 49°17' W 123°06'0 0.0
2019-May-16 14:30N 49°17' W 123°06'0 0.0
2019-May-16 14:00N 49°17' W 123°06'0 0.0
2019-May-16 13:30N 49°17' W 123°06'0 0.0
2019-May-16 13:00N 49°17' W 123°06'1 1.4
2019-May-16 12:30N 49°18' W 123°07'4 9.0
2019-May-16 12:00N 49°19' W 123°13'713.3
2019-May-16 11:30N 49°18' W 123°24'714.1
2019-May-16 11:01N 49°19' W 123°34'714.2
2019-May-16 10:31N 49°20' W 123°45'714.3
2019-May-16 10:01N 49°21' W 123°56'714.5
2019-May-16 09:30N 49°23' W 124°07'714.5
2019-May-16 09:00N 49°25' W 124°17'814.3
2019-May-16 08:25N 49°29' W 124°28'614.9
2019-May-16 08:00N 49°34' W 124°35'815.2
2019-May-16 07:30N 49°40' W 124°42'815.3
2019-May-16 07:00N 49°45' W 124°50'815.2
2019-May-16 06:30N 49°51' W 124°59'815.1
2019-May-16 06:00N 49°56' W 125°07'714.6
2019-May-16 05:30N 50°02' W 125°13'714.6
2019-May-16 05:00N 50°08' W 125°21'612.8
2019-May-16 04:30N 50°14' W 125°23'612.7
2019-May-16 04:00N 50°20' W 125°26'1313.5
2019-May-16 03:01N 50°22' W 125°46'014.2
2019-May-16 03:00N 50°22' W 125°46'1413.7
2019-May-16 02:00N 50°28' W 126°06'1114.1
2019-May-16 01:14N 50°30' W 126°23'413.9
2019-May-16 00:59N 50°30' W 126°28'713.8
2019-May-16 00:28N 50°32' W 126°39'611.8
2019-May-15 23:56N 50°37' W 126°45'716.1
2019-May-15 23:30N 50°41' W 126°53'2616.0
2019-May-15 21:54N 50°51' W 127°31'615.4
2019-May-15 21:30N 50°54' W 127°39'815.7
2019-May-15 21:00N 50°59' W 127°49'612.8
2019-May-15 20:31N 51°02' W 127°58'815.1
2019-May-15 20:01N 51°05' W 128°09'815.2
2019-May-15 19:31N 51°09' W 128°19'815.0
2019-May-15 19:01N 51°12' W 128°30'815.2
2019-May-15 18:30N 51°15' W 128°42'816.1
2019-May-15 18:00N 51°18' W 128°54'816.3
2019-May-15 17:30N 51°21' W 129°06'13117.1
2019-May-15 09:50N 53°17' W 130°45'2019.4
2019-May-15 08:49N 53°36' W 130°52'619.0
2019-May-15 08:30N 53°42' W 130°54'918.6
2019-May-15 08:00N 53°51' W 130°58'918.4
2019-May-15 07:31N 53°60' W 131°01'917.9
2019-May-15 07:00N 54°09' W 131°02'918.3
2019-May-15 06:31N 54°18' W 131°02'1018.9
2019-May-15 06:00N 54°27' W 131°09'918.9
2019-May-15 05:30N 54°35' W 131°16'918.3
2019-May-15 05:00N 54°43' W 131°09'917.5
2019-May-15 04:29N 54°51' W 131°04'1718.4
2019-May-15 03:34N 55°08' W 131°10'218.1
2019-May-15 03:29N 55°10' W 131°11'  
2019-May-12 10:46N 58°10' W 135°20'516.5
2019-May-12 10:28N 58°13' W 135°28'817.1
2019-May-12 10:00N 58°17' W 135°41'918.6
2019-May-12 09:31N 58°19' W 135°58'918.0
2019-May-12 09:00N 58°18' W 136°15'1316.9
2019-May-12 08:15N 58°10' W 136°34'  

Dump ship's entire track history